createdAt,value
2019-02-19T00:01:36.061Z,10.20
2019-02-19T00:04:06.106Z,9.75
2019-02-19T00:06:36.034Z,10.42
2019-02-19T00:09:07.767Z,10.28
2019-02-19T00:11:37.690Z,10.06
2019-02-19T00:14:07.681Z,10.38
2019-02-19T00:16:37.827Z,10.07
2019-02-19T00:19:07.775Z,9.96
2019-02-19T00:21:37.689Z,10.27
2019-02-19T00:24:07.642Z,10.38
2019-02-19T00:26:37.672Z,10.43
2019-02-19T00:29:07.898Z,10.41
2019-02-19T00:31:38.085Z,10.33
2019-02-19T00:34:08.638Z,10.24
2019-02-19T00:36:38.561Z,10.01
2019-02-19T00:39:08.655Z,10.23
2019-02-19T00:41:38.587Z,10.29
2019-02-19T00:44:08.605Z,10.34
2019-02-19T00:46:38.560Z,10.31
2019-02-19T00:49:08.496Z,10.30
2019-02-19T00:51:38.437Z,10.17
2019-02-19T00:54:10.826Z,9.96
2019-02-19T00:56:40.966Z,9.92
2019-02-19T00:59:10.916Z,9.96
2019-02-19T01:01:41.149Z,9.97
2019-02-19T01:04:11.350Z,9.90
2019-02-19T01:06:41.330Z,9.82
2019-02-19T01:09:12.096Z,9.91
2019-02-19T01:11:42.935Z,9.75
2019-02-19T01:14:12.879Z,9.82
2019-02-19T01:16:42.792Z,9.89
2019-02-19T01:19:12.708Z,9.54
2019-02-19T01:21:42.608Z,9.71
2019-02-19T01:24:12.637Z,9.48
2019-02-19T01:26:42.795Z,9.72
2019-02-19T01:29:12.726Z,9.87
2019-02-19T01:31:42.650Z,9.94
2019-02-19T01:34:12.558Z,9.78
2019-02-19T01:36:42.711Z,9.88
2019-02-19T01:39:12.887Z,9.88
2019-02-19T01:41:43.067Z,9.68
2019-02-19T01:44:13.327Z,9.65
2019-02-19T01:46:43.228Z,9.70
2019-02-19T01:49:13.161Z,9.64
2019-02-19T01:51:43.185Z,9.63
2019-02-19T01:54:13.179Z,9.76
2019-02-19T01:56:43.105Z,8.99
2019-02-19T01:59:13.019Z,9.52
2019-02-19T02:01:42.925Z,9.56
2019-02-19T02:04:13.100Z,9.64
2019-02-19T02:06:43.031Z,9.49
2019-02-19T02:09:12.989Z,8.35
2019-02-19T02:11:42.919Z,9.40
2019-02-19T02:14:13.330Z,9.40
2019-02-19T02:16:43.225Z,9.46
2019-02-19T02:19:13.162Z,9.34
2019-02-19T02:21:43.056Z,8.42
2019-02-19T02:24:12.956Z,9.42
2019-02-19T02:26:43.236Z,9.56
2019-02-19T02:29:13.186Z,9.71
2019-02-19T02:31:43.098Z,9.59
2019-02-19T02:34:13.003Z,9.61
2019-02-19T02:36:42.988Z,9.65
2019-02-19T02:39:12.891Z,9.69
2019-02-19T02:41:42.790Z,9.68
2019-02-19T02:44:12.735Z,9.74
2019-02-19T02:46:42.902Z,9.73
2019-02-19T02:49:12.824Z,9.66
2019-02-19T02:51:42.962Z,9.69
2019-02-19T02:54:12.875Z,9.71
2019-02-19T02:56:42.809Z,9.80
2019-02-19T02:59:12.734Z,9.72
2019-02-19T03:01:42.887Z,9.81
2019-02-19T03:04:13.029Z,9.77
2019-02-19T03:07:06.350Z,9.72
2019-02-19T03:09:36.246Z,9.71
2019-02-19T03:12:06.181Z,9.74
2019-02-19T03:14:36.440Z,9.67
2019-02-19T03:17:06.352Z,9.64
2019-02-19T03:19:36.366Z,9.66
2019-02-19T03:22:06.357Z,9.68
2019-02-19T03:24:36.564Z,9.70
2019-02-19T03:27:06.542Z,9.67
2019-02-19T03:29:36.552Z,9.69
2019-02-19T03:32:06.524Z,9.70
2019-02-19T03:34:36.522Z,9.59
2019-02-19T03:37:06.418Z,9.64
2019-02-19T03:39:36.364Z,9.60
2019-02-19T03:42:06.461Z,9.54
2019-02-19T03:44:36.472Z,9.68
2019-02-19T03:47:06.462Z,9.57
2019-02-19T03:49:36.431Z,9.62
2019-02-19T03:52:06.344Z,9.53
2019-02-19T03:54:36.627Z,9.58
2019-02-19T03:57:06.656Z,9.49
2019-02-19T03:59:36.591Z,9.49
2019-02-19T04:02:06.565Z,9.41
2019-02-19T04:04:36.831Z,9.39
2019-02-19T04:07:06.755Z,9.43
2019-02-19T04:09:36.921Z,9.49
2019-02-19T04:12:07.354Z,9.29
2019-02-19T04:14:37.260Z,9.35
2019-02-19T04:17:07.179Z,9.01
2019-02-19T04:19:37.684Z,9.29
2019-02-19T04:22:07.594Z,9.29
2019-02-19T04:24:37.460Z,9.21
2019-02-19T04:27:07.738Z,9.31
2019-02-19T04:29:37.859Z,9.28
2019-02-19T04:32:07.810Z,9.28
2019-02-19T04:34:37.711Z,9.32
2019-02-19T04:37:07.616Z,9.32
2019-02-19T04:39:37.534Z,9.31
2019-02-19T04:42:07.470Z,8.87
2019-02-19T04:44:37.389Z,8.99
2019-02-19T04:47:07.314Z,9.29
2019-02-19T04:49:37.330Z,8.66
2019-02-19T04:52:07.300Z,9.19
2019-02-19T04:54:37.251Z,9.03
2019-02-19T04:57:07.168Z,9.24
2019-02-19T04:59:37.362Z,9.20
2019-02-19T05:02:07.297Z,8.81
2019-02-19T05:04:37.214Z,9.15
2019-02-19T05:07:07.128Z,9.14
2019-02-19T05:09:37.326Z,8.88
2019-02-19T05:12:07.633Z,9.02
2019-02-19T05:14:37.570Z,9.11
2019-02-19T05:17:07.528Z,9.05
2019-02-19T05:19:37.486Z,8.29
2019-02-19T05:22:07.493Z,7.93
2019-02-19T05:24:37.709Z,8.95
2019-02-19T05:27:08.048Z,9.15
2019-02-19T05:29:37.952Z,9.15
2019-02-19T05:32:07.851Z,9.16
2019-02-19T05:34:37.974Z,8.80
2019-02-19T05:37:08.242Z,8.72
2019-02-19T05:39:38.167Z,9.03
2019-02-19T05:42:08.127Z,8.87
2019-02-19T05:44:38.410Z,8.91
2019-02-19T05:47:08.354Z,8.99
2019-02-19T05:49:38.262Z,9.00
2019-02-19T05:52:08.366Z,9.01
2019-02-19T05:54:38.507Z,9.08
2019-02-19T05:57:08.428Z,9.03
2019-02-19T05:59:38.316Z,9.16
2019-02-19T06:02:08.707Z,9.00
2019-02-19T06:04:39.378Z,9.04
2019-02-19T06:07:09.587Z,9.05
2019-02-19T06:09:39.475Z,9.11
2019-02-19T06:12:09.653Z,9.04
2019-02-19T06:14:39.599Z,8.75
2019-02-19T06:17:09.555Z,8.47
2019-02-19T06:19:39.773Z,9.01
2019-02-19T06:22:09.808Z,9.15
2019-02-19T06:24:39.772Z,9.12
2019-02-19T06:27:09.783Z,9.02
2019-02-19T06:29:39.729Z,9.13
2019-02-19T06:32:09.636Z,9.20
2019-02-19T06:34:39.609Z,9.17
2019-02-19T06:37:09.785Z,9.10
2019-02-19T06:39:39.704Z,9.26
2019-02-19T06:42:09.618Z,9.37
2019-02-19T06:44:39.677Z,9.32
2019-02-19T06:47:09.762Z,9.07
2019-02-19T06:49:39.989Z,8.62
2019-02-19T06:52:09.882Z,9.33
2019-02-19T06:54:39.776Z,9.58
2019-02-19T06:57:09.759Z,8.92
2019-02-19T06:59:39.727Z,9.16
2019-02-19T07:02:29.112Z,9.62
2019-02-19T07:05:00.946Z,9.33
2019-02-19T07:07:30.948Z,9.60
2019-02-19T07:10:00.866Z,9.37
2019-02-19T07:12:30.828Z,9.69
2019-02-19T07:15:01.048Z,9.89
2019-02-19T07:17:30.968Z,9.87
2019-02-19T07:20:00.947Z,9.86
2019-02-19T07:22:30.891Z,9.96
2019-02-19T07:25:00.926Z,10.23
2019-02-19T07:27:30.907Z,8.75
2019-02-19T07:30:00.829Z,9.75
2019-02-19T07:32:30.790Z,10.05
2019-02-19T07:35:00.989Z,9.56
2019-02-19T07:37:31.015Z,10.46
2019-02-19T07:40:00.928Z,9.45
2019-02-19T07:42:30.868Z,9.91
2019-02-19T07:45:00.812Z,9.41
2019-02-19T07:47:30.822Z,10.13
2019-02-19T07:50:00.751Z,9.38
2019-02-19T07:52:30.972Z,10.42
2019-02-19T07:55:01.163Z,9.70
2019-02-19T07:57:31.086Z,10.01
2019-02-19T08:00:01.112Z,10.85
2019-02-19T08:02:31.108Z,10.70
2019-02-19T08:05:01.100Z,10.61
2019-02-19T08:07:31.125Z,11.02
2019-02-19T08:10:01.154Z,11.16
2019-02-19T08:12:31.705Z,10.95
2019-02-19T08:15:01.649Z,11.22
2019-02-19T08:17:33.562Z,11.39
2019-02-19T08:20:03.900Z,9.65
2019-02-19T08:22:34.186Z,10.47
2019-02-19T08:25:04.457Z,10.73
2019-02-19T08:27:34.725Z,10.13
2019-02-19T08:30:05.917Z,10.56
2019-02-19T08:32:36.207Z,11.44
2019-02-19T08:35:06.667Z,11.75
2019-02-19T08:37:36.980Z,11.12
2019-02-19T08:40:07.862Z,10.73
2019-02-19T08:42:37.920Z,11.33
2019-02-19T08:45:08.266Z,11.17
2019-02-19T08:47:42.637Z,11.57
2019-02-19T08:50:10.530Z,11.75
2019-02-19T08:52:40.482Z,11.53
2019-02-19T08:55:10.999Z,11.53
2019-02-19T08:57:40.932Z,11.70
2019-02-19T09:00:11.600Z,11.70
2019-02-19T09:02:41.661Z,11.66
2019-02-19T09:05:11.680Z,11.90
2019-02-19T09:07:41.774Z,11.50
2019-02-19T09:10:12.167Z,11.67
2019-02-19T09:12:42.119Z,11.75
2019-02-19T09:15:12.299Z,11.57
2019-02-19T09:17:51.324Z,11.77
2019-02-19T09:20:14.196Z,11.69
2019-02-19T09:22:44.201Z,11.95
2019-02-19T09:25:14.106Z,11.90
2019-02-19T09:27:44.079Z,11.86
2019-02-19T09:30:14.665Z,12.12
2019-02-19T09:32:44.674Z,12.09
2019-02-19T09:35:15.040Z,12.11
2019-02-19T09:37:44.938Z,12.23
2019-02-19T09:40:14.964Z,12.14
2019-02-19T09:42:44.988Z,12.10
2019-02-19T09:45:15.359Z,11.98
2019-02-19T09:47:45.280Z,11.91
2019-02-19T09:50:15.443Z,11.78
2019-02-19T09:52:45.814Z,11.97
2019-02-19T09:55:16.088Z,11.50
2019-02-19T09:57:46.204Z,12.13
2019-02-19T10:00:16.517Z,11.89
2019-02-19T10:02:47.209Z,12.34
2019-02-19T10:05:17.416Z,11.63
2019-02-19T10:07:47.364Z,12.07
2019-02-19T10:10:18.339Z,12.16
2019-02-19T10:12:48.652Z,11.89
2019-02-19T10:15:19.094Z,11.89
2019-02-19T10:17:49.191Z,11.97
2019-02-19T10:20:19.242Z,12.01
2019-02-19T10:22:49.174Z,12.33
2019-02-19T10:25:19.108Z,12.44
2019-02-19T10:27:49.031Z,12.10
2019-02-19T10:30:19.474Z,12.42
2019-02-19T10:32:49.432Z,12.00
2019-02-19T10:35:19.629Z,11.26
2019-02-19T10:37:49.640Z,11.93
2019-02-19T10:40:19.725Z,11.65
2019-02-19T10:42:50.065Z,12.01
2019-02-19T10:45:20.117Z,12.18
2019-02-19T10:47:50.132Z,12.53
2019-02-19T10:50:20.160Z,12.23
2019-02-19T10:52:51.719Z,12.06
2019-02-19T10:55:21.815Z,12.24
2019-02-19T10:57:51.726Z,12.22
2019-02-19T11:00:22.793Z,12.71
2019-02-19T11:02:52.693Z,12.31
2019-02-19T11:05:23.426Z,12.46
2019-02-19T11:07:53.417Z,12.01
2019-02-19T11:10:23.955Z,12.67
2019-02-19T11:12:53.883Z,11.87
2019-02-19T11:15:24.291Z,12.21
2019-02-19T11:17:54.240Z,12.14
2019-02-19T11:20:24.283Z,12.47
2019-02-19T11:22:54.700Z,12.88
2019-02-19T11:25:24.667Z,13.50
2019-02-19T11:27:54.907Z,13.10
2019-02-19T11:30:25.041Z,12.94
2019-02-19T11:32:54.990Z,13.18
2019-02-19T11:35:25.464Z,13.21
2019-02-19T11:37:55.508Z,13.09
2019-02-19T11:40:25.478Z,13.16
2019-02-19T11:42:55.446Z,12.93
2019-02-19T11:45:25.549Z,13.27
2019-02-19T11:47:55.449Z,12.72
2019-02-19T11:50:25.399Z,12.79
2019-02-19T11:52:55.336Z,11.02
2019-02-19T11:55:25.280Z,12.12
2019-02-19T11:57:55.679Z,12.63
2019-02-19T12:00:31.402Z,12.50
2019-02-19T12:03:01.335Z,13.18
2019-02-19T12:05:31.367Z,12.65
2019-02-19T12:08:01.316Z,13.29
2019-02-19T12:10:31.465Z,13.37
2019-02-19T12:13:01.547Z,13.43
2019-02-19T12:15:35.184Z,13.22
2019-02-19T12:18:03.355Z,13.58
2019-02-19T12:20:33.310Z,13.52
2019-02-19T12:23:03.231Z,13.07
2019-02-19T12:25:36.407Z,13.36
2019-02-19T12:28:06.548Z,12.16
2019-02-19T12:30:36.683Z,12.64
2019-02-19T12:33:06.621Z,12.02
2019-02-19T12:35:36.675Z,12.56
2019-02-19T12:38:06.729Z,13.21
2019-02-19T12:40:37.084Z,13.62
2019-02-19T12:43:07.104Z,13.36
2019-02-19T12:45:37.133Z,13.11
2019-02-19T12:48:07.097Z,13.23
2019-02-19T12:50:37.078Z,13.04
2019-02-19T12:53:07.417Z,12.66
2019-02-19T12:55:37.681Z,13.00
2019-02-19T12:58:07.707Z,13.24
2019-02-19T13:00:37.985Z,12.65
2019-02-19T13:03:08.154Z,12.94
2019-02-19T13:05:38.342Z,12.42
2019-02-19T13:08:08.547Z,12.87
2019-02-19T13:10:38.534Z,12.75
2019-02-19T13:13:08.654Z,12.78
2019-02-19T13:15:39.102Z,12.29
2019-02-19T13:18:09.075Z,12.26
2019-02-19T13:20:39.220Z,12.99
2019-02-19T13:23:09.426Z,11.77
2019-02-19T13:25:39.439Z,12.82
2019-02-19T13:28:09.476Z,12.18
2019-02-19T13:30:39.564Z,11.38
2019-02-19T13:33:09.539Z,12.33
2019-02-19T13:35:39.685Z,11.66
2019-02-19T13:38:09.612Z,12.53
2019-02-19T13:40:39.578Z,12.72
2019-02-19T13:43:09.599Z,13.01
2019-02-19T13:45:39.875Z,13.00
2019-02-19T13:48:09.834Z,12.94
2019-02-19T13:50:40.062Z,12.44
2019-02-19T13:53:14.817Z,12.04
2019-02-19T13:55:48.174Z,12.06
2019-02-19T13:58:18.460Z,12.31
2019-02-19T14:00:49.396Z,12.39
2019-02-19T14:03:19.418Z,12.92
2019-02-19T14:05:49.724Z,13.07
2019-02-19T14:08:19.662Z,13.41
2019-02-19T14:10:49.647Z,13.22
2019-02-19T14:13:19.586Z,13.31
2019-02-19T14:15:59.158Z,13.63
2019-02-19T14:18:46.649Z,12.82
2019-02-19T14:21:35.575Z,13.26
2019-02-19T14:24:14.421Z,13.61
2019-02-19T14:27:01.778Z,12.56
2019-02-19T14:30:07.812Z,12.85
2019-02-19T14:32:51.767Z,12.86
2019-02-19T14:35:43.482Z,13.03
2019-02-19T14:38:40.929Z,12.35
2019-02-19T14:41:32.479Z,12.84
2019-02-19T14:44:15.772Z,12.09
2019-02-19T14:47:10.929Z,12.98
2019-02-19T14:50:05.783Z,12.78
2019-02-19T14:52:47.503Z,12.44
2019-02-19T14:55:27.745Z,13.11
2019-02-19T14:58:23.388Z,13.23
2019-02-19T15:01:24.418Z,13.32
2019-02-19T15:04:15.423Z,12.45
2019-02-19T15:06:58.598Z,13.07
2019-02-19T15:09:48.969Z,13.15
2019-02-19T15:12:26.619Z,12.41
2019-02-19T15:15:14.883Z,13.01
2019-02-19T15:18:09.681Z,13.28
2019-02-19T15:20:50.366Z,12.79
2019-02-19T15:23:38.045Z,12.92
2019-02-19T15:26:25.038Z,12.74
2019-02-19T15:29:05.256Z,12.26
2019-02-19T15:31:53.983Z,12.72
2019-02-19T15:34:41.998Z,12.67
2019-02-19T15:37:33.685Z,12.57
2019-02-19T15:40:21.297Z,12.76
2019-02-19T15:43:03.018Z,12.78
2019-02-19T15:45:50.843Z,11.94
2019-02-19T15:48:34.434Z,12.28
2019-02-19T15:51:38.652Z,12.41
2019-02-19T15:54:22.535Z,12.58
2019-02-19T15:56:55.966Z,12.65
2019-02-19T15:59:33.897Z,12.48
2019-02-19T16:02:22.324Z,12.73
2019-02-19T16:05:20.743Z,12.13
2019-02-19T16:07:58.786Z,11.87
2019-02-19T16:10:34.618Z,11.97
2019-02-19T16:13:16.126Z,12.21
2019-02-19T16:16:11.069Z,11.61
2019-02-19T16:19:09.049Z,12.17
2019-02-19T16:21:46.359Z,12.65
2019-02-19T16:24:26.752Z,12.34
2019-02-19T16:27:06.793Z,11.13
2019-02-19T16:30:05.056Z,11.94
2019-02-19T16:32:42.322Z,12.30
2019-02-19T16:35:33.877Z,12.58
2019-02-19T16:38:12.991Z,12.04
2019-02-19T16:40:55.290Z,11.73
2019-02-19T16:43:39.904Z,12.46
2019-02-19T16:46:21.170Z,12.69
2019-02-19T16:49:10.127Z,13.32
2019-02-19T16:52:04.488Z,13.83
2019-02-19T16:54:56.434Z,13.87
2019-02-19T16:57:48.203Z,13.02
2019-02-19T17:00:23.915Z,12.36
2019-02-19T17:03:11.423Z,11.81
2019-02-19T17:05:52.562Z,12.62
2019-02-19T17:08:28.885Z,12.71
2019-02-19T17:11:32.721Z,12.42
2019-02-19T17:14:20.408Z,11.61
2019-02-19T17:17:07.970Z,12.67
2019-02-19T17:20:02.385Z,12.81
2019-02-19T17:22:51.429Z,12.85
2019-02-19T17:25:26.467Z,11.15
2019-02-19T17:28:12.460Z,12.56
2019-02-19T17:31:04.204Z,11.85
2019-02-19T17:33:51.783Z,12.80
2019-02-19T17:36:27.052Z,12.90
2019-02-19T17:39:24.900Z,13.01
2019-02-19T17:42:23.111Z,12.63
2019-02-19T17:45:03.251Z,12.17
2019-02-19T17:48:07.509Z,12.67
2019-02-19T17:50:50.719Z,12.73
2019-02-19T17:53:40.319Z,12.40
2019-02-19T17:56:32.455Z,12.06
2019-02-19T17:59:19.645Z,11.77
2019-02-19T18:02:16.798Z,11.20
2019-02-19T18:04:52.947Z,12.06
2019-02-19T18:07:45.852Z,11.63
2019-02-19T18:10:39.287Z,12.14
2019-02-19T18:13:30.032Z,12.06
2019-02-19T18:16:16.951Z,12.09
2019-02-19T18:18:49.111Z,11.53
2019-02-19T18:21:19.939Z,11.63
2019-02-19T18:23:49.853Z,12.27
2019-02-19T18:26:19.779Z,12.28
2019-02-19T18:28:49.758Z,12.06
2019-02-19T18:31:19.778Z,12.25
2019-02-19T18:33:49.778Z,12.30
2019-02-19T18:36:19.795Z,12.28
2019-02-19T18:38:49.898Z,11.55
2019-02-19T18:41:19.966Z,11.85
2019-02-19T18:43:49.861Z,11.79
2019-02-19T18:46:20.012Z,11.69
2019-02-19T18:48:50.049Z,11.81
2019-02-19T18:51:19.944Z,12.07
2019-02-19T18:53:49.949Z,12.33
2019-02-19T18:56:19.970Z,11.81
2019-02-19T18:58:49.884Z,12.33
2019-02-19T19:01:20.042Z,11.61
2019-02-19T19:03:50.026Z,12.32
2019-02-19T19:06:20.024Z,11.65
2019-02-19T19:08:49.993Z,11.78
2019-02-19T19:11:20.071Z,12.36
2019-02-19T19:13:49.975Z,12.47
2019-02-19T19:16:19.894Z,11.41
2019-02-19T19:18:49.850Z,12.09
2019-02-19T19:21:19.874Z,12.30
2019-02-19T19:23:50.183Z,12.01
2019-02-19T19:26:20.113Z,11.10
2019-02-19T19:28:50.026Z,10.29
2019-02-19T19:31:19.930Z,10.30
2019-02-19T19:33:49.913Z,9.70
2019-02-19T19:36:20.124Z,9.44
2019-02-19T19:38:50.109Z,9.18
2019-02-19T19:41:20.112Z,9.33
2019-02-19T19:43:50.047Z,9.53
2019-02-19T19:46:20.014Z,10.35
2019-02-19T19:48:50.002Z,10.49
2019-02-19T19:51:19.957Z,10.57
2019-02-19T19:53:49.913Z,10.72
2019-02-19T19:56:19.877Z,10.43
2019-02-19T19:58:49.942Z,9.97
2019-02-19T20:01:19.959Z,10.70
2019-02-19T20:03:50.149Z,10.90
2019-02-19T20:06:20.109Z,10.97
2019-02-19T20:08:50.082Z,11.03
2019-02-19T20:11:20.049Z,10.99
2019-02-19T20:13:50.025Z,11.02
2019-02-19T20:16:20.010Z,10.14
2019-02-19T20:18:50.372Z,10.74
2019-02-19T20:21:26.380Z,10.58
2019-02-19T20:23:52.105Z,10.98
2019-02-19T20:26:22.040Z,10.75
2019-02-19T20:28:52.099Z,11.06
2019-02-19T20:31:22.052Z,10.89
2019-02-19T20:33:52.011Z,10.87
2019-02-19T20:36:22.020Z,10.84
2019-02-19T20:38:52.029Z,10.79
2019-02-19T20:41:21.952Z,10.78
2019-02-19T20:43:52.003Z,10.74
2019-02-19T20:46:21.988Z,10.74
2019-02-19T20:48:52.310Z,10.25
2019-02-19T20:51:22.283Z,10.23
2019-02-19T20:53:52.375Z,10.62
2019-02-19T20:56:22.472Z,10.21
2019-02-19T20:58:52.857Z,10.40
2019-02-19T21:01:22.934Z,10.11
2019-02-19T21:03:53.007Z,9.80
2019-02-19T21:06:24.158Z,9.99
2019-02-19T21:08:54.351Z,9.28
2019-02-19T21:11:24.424Z,10.04
2019-02-19T21:13:54.943Z,10.41
2019-02-19T21:16:25.185Z,10.79
2019-02-19T21:18:55.309Z,10.96
2019-02-19T21:21:25.266Z,9.87
2019-02-19T21:23:55.257Z,10.69
2019-02-19T21:26:25.197Z,10.89
2019-02-19T21:28:55.204Z,10.46
2019-02-19T21:31:25.324Z,10.66
2019-02-19T21:33:55.293Z,10.41
2019-02-19T21:36:25.423Z,10.01
2019-02-19T21:38:55.437Z,10.19
2019-02-19T21:41:25.552Z,10.35
2019-02-19T21:43:55.527Z,10.41
2019-02-19T21:46:25.792Z,10.50
2019-02-19T21:48:55.766Z,10.51
2019-02-19T21:51:25.733Z,9.88
2019-02-19T21:53:55.752Z,10.05
2019-02-19T21:56:25.781Z,9.55
2019-02-19T21:58:56.349Z,9.62
2019-02-19T22:01:26.394Z,10.21
2019-02-19T22:03:56.545Z,10.45
2019-02-19T22:06:26.613Z,10.45
2019-02-19T22:08:56.833Z,10.43
2019-02-19T22:11:27.123Z,10.30
2019-02-19T22:13:57.142Z,10.63
2019-02-19T22:16:27.129Z,10.73
2019-02-19T22:18:57.092Z,10.43
2019-02-19T22:21:32.627Z,10.68
2019-02-19T22:24:02.573Z,10.48
2019-02-19T22:26:32.530Z,10.53
2019-02-19T22:29:02.823Z,10.44
2019-02-19T22:31:32.853Z,10.36
2019-02-19T22:34:02.870Z,10.68
2019-02-19T22:36:32.853Z,10.76
2019-02-19T22:39:02.877Z,10.58
2019-02-19T22:41:32.908Z,10.48
2019-02-19T22:44:02.853Z,10.55
2019-02-19T22:46:32.872Z,9.65
2019-02-19T22:49:02.830Z,10.18
2019-02-19T22:51:32.837Z,10.17
2019-02-19T22:54:07.671Z,10.18
2019-02-19T22:56:40.465Z,10.03
2019-02-19T22:59:10.385Z,10.02
2019-02-19T23:01:56.924Z,10.32
2019-02-19T23:04:26.829Z,10.36
2019-02-19T23:06:56.755Z,10.36
2019-02-19T23:09:26.745Z,10.35
2019-02-19T23:11:56.715Z,10.28
2019-02-19T23:14:26.685Z,9.99
2019-02-19T23:16:56.570Z,10.42
2019-02-19T23:19:26.640Z,10.34
2019-02-19T23:21:56.567Z,9.95
2019-02-19T23:24:26.488Z,9.49
2019-02-19T23:26:56.390Z,9.93
2019-02-19T23:29:26.312Z,10.10
2019-02-19T23:31:56.299Z,9.93
2019-02-19T23:34:26.983Z,9.49
2019-02-19T23:37:00.647Z,10.27
2019-02-19T23:39:30.557Z,10.46
2019-02-19T23:42:00.467Z,10.17
2019-02-19T23:44:30.617Z,9.64
2019-02-19T23:47:00.811Z,10.22
2019-02-19T23:49:31.133Z,10.36
2019-02-19T23:52:01.067Z,10.37
2019-02-19T23:54:31.019Z,10.23
2019-02-19T23:57:00.938Z,9.78
2019-02-19T23:59:30.902Z,10.25
